createdAt,value
2019-01-19T00:00:07.309Z,3.17
2019-01-19T00:02:40.627Z,3.37
2019-01-19T00:05:32.018Z,3.20
2019-01-19T00:08:05.176Z,3.13
2019-01-19T00:10:56.671Z,3.10
2019-01-19T00:13:48.047Z,3.47
2019-01-19T00:16:27.573Z,3.33
2019-01-19T00:19:31.288Z,3.40
2019-01-19T00:22:13.705Z,4.20
2019-01-19T00:24:52.665Z,3.33
2019-01-19T00:27:43.660Z,3.93
2019-01-19T00:30:17.044Z,3.47
2019-01-19T00:32:56.145Z,2.93
2019-01-19T00:35:46.364Z,3.57
2019-01-19T00:38:36.222Z,2.83
2019-01-19T00:41:21.735Z,3.63
2019-01-19T00:43:55.607Z,2.70
2019-01-19T00:46:31.706Z,3.53
2019-01-19T00:49:10.759Z,3.13
2019-01-19T00:51:50.163Z,4.00
2019-01-19T00:54:23.667Z,3.47
2019-01-19T00:57:06.273Z,3.40
2019-01-19T00:59:37.316Z,3.17
2019-01-19T01:02:25.896Z,3.53
2019-01-19T01:05:08.325Z,3.23
2019-01-19T01:08:05.284Z,4.20
2019-01-19T01:10:41.172Z,3.80
2019-01-19T01:13:23.030Z,4.30
2019-01-19T01:15:59.109Z,3.20
2019-01-19T01:18:44.636Z,3.27
2019-01-19T01:21:51.363Z,3.60
2019-01-19T01:24:51.890Z,3.27
2019-01-19T01:27:37.478Z,3.13
2019-01-19T01:30:23.223Z,3.70
2019-01-19T01:33:02.452Z,3.40
2019-01-19T01:35:35.630Z,2.97
2019-01-19T01:38:08.671Z,3.33
2019-01-19T01:40:44.940Z,3.37
2019-01-19T01:43:20.614Z,4.30
2019-01-19T01:45:56.680Z,3.83
2019-01-19T01:48:36.487Z,3.73
2019-01-19T01:51:37.361Z,4.20
2019-01-19T01:54:19.392Z,3.67
2019-01-19T01:56:49.984Z,5.17
2019-01-19T01:59:25.048Z,3.77
2019-01-19T02:02:12.990Z,4.17
2019-01-19T02:04:49.234Z,4.70
2019-01-19T02:07:43.786Z,4.37
2019-01-19T02:10:26.087Z,3.90
2019-01-19T02:13:17.421Z,4.20
2019-01-19T02:16:20.946Z,4.13
2019-01-19T02:19:06.208Z,5.20
2019-01-19T02:21:42.208Z,5.63
2019-01-19T02:24:32.120Z,5.40
2019-01-19T02:27:05.514Z,5.63
2019-01-19T02:29:50.856Z,5.40
2019-01-19T02:32:36.474Z,5.27
2019-01-19T02:35:29.665Z,5.97
2019-01-19T02:38:02.843Z,5.53
2019-01-19T02:40:38.980Z,5.27
2019-01-19T02:43:30.346Z,5.63
2019-01-19T02:46:16.031Z,5.03
2019-01-19T02:49:05.765Z,5.43
2019-01-19T02:51:50.678Z,5.30
2019-01-19T02:54:23.976Z,4.77
2019-01-19T02:57:13.929Z,5.83
2019-01-19T03:00:02.409Z,5.37
2019-01-19T03:02:47.617Z,6.00
2019-01-19T03:05:20.849Z,7.93
2019-01-19T03:08:13.899Z,6.70
2019-01-19T03:10:49.698Z,8.80
2019-01-19T03:13:34.818Z,7.67
2019-01-19T03:16:36.743Z,7.47
2019-01-19T03:19:25.021Z,7.33
2019-01-19T03:22:13.382Z,8.20
2019-01-19T03:24:52.317Z,8.40
2019-01-19T03:27:28.609Z,8.07
2019-01-19T03:30:04.823Z,7.00
2019-01-19T03:32:50.728Z,7.30
2019-01-19T03:35:29.859Z,5.90
2019-01-19T03:38:08.581Z,6.03
2019-01-19T03:40:51.212Z,8.20
2019-01-19T03:43:47.408Z,7.40
2019-01-19T03:46:30.054Z,7.40
2019-01-19T03:49:12.777Z,5.90
2019-01-19T03:51:45.989Z,6.80
2019-01-19T03:54:22.417Z,6.03
2019-01-19T03:57:01.411Z,5.47
2019-01-19T03:59:52.707Z,6.47
2019-01-19T04:02:32.331Z,6.60
2019-01-19T04:05:34.506Z,7.17
2019-01-19T04:08:23.393Z,6.83
2019-01-19T04:11:02.935Z,6.67
2019-01-19T04:13:48.617Z,6.77
2019-01-19T04:16:24.653Z,6.60
2019-01-19T04:19:06.571Z,6.30
2019-01-19T04:21:46.089Z,7.03
2019-01-19T04:24:25.600Z,6.10
2019-01-19T04:26:55.944Z,7.23
2019-01-19T04:29:26.438Z,6.60
2019-01-19T04:31:57.022Z,6.00
2019-01-19T04:34:28.415Z,7.47
2019-01-19T04:36:59.198Z,6.83
2019-01-19T04:39:29.722Z,7.60
2019-01-19T04:42:00.148Z,6.87
2019-01-19T04:44:30.711Z,8.00
2019-01-19T04:47:01.676Z,7.10
2019-01-19T04:49:32.062Z,7.70
2019-01-19T04:52:02.732Z,7.93
2019-01-19T04:54:33.508Z,7.20
2019-01-19T04:57:04.270Z,7.90
2019-01-19T04:59:34.972Z,8.50
2019-01-19T05:02:05.877Z,7.67
2019-01-19T05:04:36.653Z,7.50
2019-01-19T05:07:07.407Z,7.77
2019-01-19T05:09:38.076Z,8.57
2019-01-19T05:12:09.008Z,27.03
2019-01-19T05:14:39.946Z,35.13
2019-01-19T05:17:10.526Z,30.63
2019-01-19T05:19:40.901Z,29.70
2019-01-19T05:22:11.501Z,31.67
2019-01-19T05:24:42.469Z,28.57
2019-01-19T05:27:13.116Z,29.60
2019-01-19T05:29:43.668Z,25.57
2019-01-19T05:32:15.170Z,24.97
2019-01-19T05:34:46.324Z,23.73
2019-01-19T05:37:16.869Z,24.00
2019-01-19T05:39:47.791Z,21.73
2019-01-19T05:42:20.908Z,23.50
2019-01-19T05:44:51.398Z,20.87
2019-01-19T05:47:21.954Z,21.33
2019-01-19T05:49:52.647Z,21.17
2019-01-19T05:52:23.398Z,21.37
2019-01-19T05:54:53.987Z,20.73
2019-01-19T05:57:24.739Z,20.97
2019-01-19T05:59:55.460Z,22.00
2019-01-19T06:02:29.628Z,21.90
2019-01-19T06:05:00.557Z,21.80
2019-01-19T06:07:31.358Z,19.83
2019-01-19T06:10:01.971Z,18.40
2019-01-19T06:12:32.788Z,20.17
2019-01-19T06:15:03.681Z,19.37
2019-01-19T06:17:34.553Z,20.60
2019-01-19T06:20:08.349Z,19.80
2019-01-19T06:22:38.813Z,21.33
2019-01-19T06:25:12.445Z,19.97
2019-01-19T06:27:43.377Z,24.63
2019-01-19T06:30:19.726Z,21.20
2019-01-19T06:32:50.358Z,22.00
2019-01-19T06:35:21.106Z,24.00
2019-01-19T06:37:51.876Z,21.63
2019-01-19T06:40:22.920Z,23.03
2019-01-19T06:42:54.061Z,21.67
2019-01-19T06:45:25.258Z,23.47
2019-01-19T06:47:55.573Z,24.60
2019-01-19T06:50:26.659Z,23.47
2019-01-19T06:52:57.472Z,24.40
2019-01-19T06:55:30.228Z,24.47
2019-01-19T06:58:00.622Z,24.37
2019-01-19T07:00:31.256Z,23.90
2019-01-19T07:03:01.981Z,22.20
2019-01-19T07:05:32.906Z,23.20
2019-01-19T07:08:03.377Z,26.87
2019-01-19T07:10:34.024Z,24.73
2019-01-19T07:13:04.703Z,24.93
2019-01-19T07:15:35.332Z,23.87
2019-01-19T07:18:06.382Z,25.87
2019-01-19T07:20:36.950Z,24.50
2019-01-19T07:23:07.634Z,25.27
2019-01-19T07:25:38.126Z,25.97
2019-01-19T07:28:08.698Z,24.27
2019-01-19T07:30:39.541Z,25.77
2019-01-19T07:33:10.084Z,26.90
2019-01-19T07:35:40.948Z,25.67
2019-01-19T07:38:11.440Z,28.70
2019-01-19T07:40:41.994Z,26.53
2019-01-19T07:43:13.028Z,26.37
2019-01-19T07:45:43.738Z,28.27
2019-01-19T07:48:14.530Z,29.53
2019-01-19T07:50:45.092Z,30.70
2019-01-19T07:53:16.027Z,28.70
2019-01-19T07:55:46.959Z,32.43
2019-01-19T07:58:17.904Z,30.73
2019-01-19T08:00:48.198Z,28.83
2019-01-19T08:03:18.674Z,30.03
2019-01-19T08:05:49.703Z,35.33
2019-01-19T08:08:20.180Z,32.43
2019-01-19T08:10:50.764Z,30.33
2019-01-19T08:13:21.907Z,31.00
2019-01-19T08:15:52.439Z,31.80
2019-01-19T08:18:23.225Z,31.67
2019-01-19T08:20:53.999Z,28.67
2019-01-19T08:23:26.147Z,29.70
2019-01-19T08:25:56.810Z,28.70
2019-01-19T08:28:27.251Z,29.53
2019-01-19T08:30:58.007Z,33.10
2019-01-19T08:33:28.476Z,30.60
2019-01-19T08:35:59.363Z,33.80
2019-01-19T08:38:29.921Z,33.47
2019-01-19T08:41:00.998Z,34.90
2019-01-19T08:43:33.635Z,33.00
2019-01-19T08:46:04.708Z,34.60
2019-01-19T08:48:36.798Z,34.33
2019-01-19T08:51:07.842Z,33.53
2019-01-19T08:53:41.472Z,36.00
2019-01-19T08:56:12.108Z,37.60
2019-01-19T08:58:42.587Z,40.10
2019-01-19T09:01:13.586Z,38.00
2019-01-19T09:03:44.160Z,43.00
2019-01-19T09:06:14.736Z,39.27
2019-01-19T09:08:45.818Z,35.83
2019-01-19T09:11:16.393Z,36.10
2019-01-19T09:13:47.135Z,36.03
2019-01-19T09:16:17.888Z,35.93
2019-01-19T09:18:48.655Z,36.17
2019-01-19T09:21:21.187Z,36.13
2019-01-19T09:23:53.499Z,34.93
2019-01-19T09:26:24.594Z,33.37
2019-01-19T09:28:55.260Z,37.13
2019-01-19T09:31:25.940Z,34.50
2019-01-19T09:33:56.707Z,35.00
2019-01-19T09:36:29.789Z,35.30
2019-01-19T09:39:00.538Z,34.90
2019-01-19T09:41:31.207Z,32.93
2019-01-19T09:44:01.738Z,35.53
2019-01-19T09:46:32.393Z,35.60
2019-01-19T09:49:03.354Z,35.17
2019-01-19T09:51:34.097Z,37.00
2019-01-19T09:54:05.165Z,34.43
2019-01-19T09:56:35.807Z,32.80
2019-01-19T09:59:06.699Z,32.47
2019-01-19T10:01:37.439Z,32.63
2019-01-19T10:04:08.615Z,34.17
2019-01-19T10:06:39.295Z,32.43
2019-01-19T10:09:09.833Z,30.77
2019-01-19T10:11:40.242Z,30.53
2019-01-19T10:14:11.237Z,31.57
2019-01-19T10:16:41.863Z,29.70
2019-01-19T10:19:12.468Z,29.07
2019-01-19T10:21:43.006Z,26.70
2019-01-19T10:24:13.580Z,29.83
2019-01-19T10:26:44.085Z,28.43
2019-01-19T10:29:15.078Z,29.97
2019-01-19T10:31:45.408Z,27.33
2019-01-19T10:34:19.174Z,26.93
2019-01-19T10:36:49.637Z,27.40
2019-01-19T10:39:20.458Z,28.47
2019-01-19T10:41:51.154Z,28.93
2019-01-19T10:44:21.746Z,27.23
2019-01-19T10:46:52.136Z,27.70
2019-01-19T10:49:23.004Z,26.20
2019-01-19T10:51:59.334Z,27.70
2019-01-19T10:54:26.002Z,28.50
2019-01-19T10:56:56.695Z,26.80
2019-01-19T10:59:27.374Z,25.47
2019-01-19T11:01:58.448Z,26.77
2019-01-19T11:04:28.988Z,24.93
2019-01-19T11:06:59.747Z,28.03
2019-01-19T11:09:30.257Z,25.40
2019-01-19T11:12:00.910Z,25.57
2019-01-19T11:14:31.478Z,24.93
2019-01-19T11:17:02.146Z,24.67
2019-01-19T11:19:32.741Z,24.90
2019-01-19T11:22:03.199Z,24.80
2019-01-19T11:24:33.839Z,24.80
2019-01-19T11:27:04.607Z,22.63
2019-01-19T11:29:35.461Z,22.30
2019-01-19T11:32:06.193Z,25.83
2019-01-19T11:34:37.069Z,24.30
2019-01-19T11:37:07.752Z,24.20
2019-01-19T11:39:39.855Z,25.80
2019-01-19T11:42:10.567Z,24.53
2019-01-19T11:44:40.948Z,24.43
2019-01-19T11:47:11.468Z,24.47
2019-01-19T11:49:42.513Z,22.43
2019-01-19T11:52:13.294Z,24.63
2019-01-19T11:54:44.311Z,23.37
2019-01-19T11:57:14.959Z,24.63
2019-01-19T11:59:45.408Z,22.00
2019-01-19T12:02:15.891Z,23.93
2019-01-19T12:04:46.595Z,23.40
2019-01-19T12:07:18.435Z,24.50
2019-01-19T12:09:49.101Z,20.40
2019-01-19T12:12:20.048Z,23.10
2019-01-19T12:14:50.654Z,23.50
2019-01-19T12:17:21.789Z,21.70
2019-01-19T12:19:52.535Z,22.90
2019-01-19T12:22:23.464Z,21.93
2019-01-19T12:24:54.220Z,24.17
2019-01-19T12:27:24.952Z,24.37
2019-01-19T12:29:56.069Z,23.67
2019-01-19T12:32:26.819Z,23.73
2019-01-19T12:34:57.395Z,20.73
2019-01-19T12:37:27.831Z,22.30
2019-01-19T12:39:58.290Z,22.67
2019-01-19T12:42:31.588Z,23.60
2019-01-19T12:45:07.695Z,22.70
2019-01-19T12:47:38.990Z,22.07
2019-01-19T12:50:12.082Z,21.03
2019-01-19T12:52:42.899Z,22.83
2019-01-19T12:55:14.665Z,23.87
2019-01-19T12:57:45.460Z,22.97
2019-01-19T13:00:21.278Z,26.10
2019-01-19T13:02:52.261Z,23.67
2019-01-19T13:05:31.259Z,22.67
2019-01-19T13:08:02.006Z,24.83
2019-01-19T13:10:35.210Z,25.33
2019-01-19T13:13:06.918Z,25.33
2019-01-19T13:16:01.274Z,25.10
2019-01-19T13:18:43.440Z,23.53
2019-01-19T13:21:34.925Z,23.40
2019-01-19T13:24:20.083Z,25.93
2019-01-19T13:27:16.059Z,25.50
2019-01-19T13:30:10.835Z,25.40
2019-01-19T13:32:59.047Z,27.27
2019-01-19T13:35:52.280Z,27.67
2019-01-19T13:38:41.787Z,26.37
2019-01-19T13:41:24.382Z,27.30
2019-01-19T13:44:09.721Z,25.90
2019-01-19T13:46:58.469Z,25.80
2019-01-19T13:49:51.185Z,26.20
2019-01-19T13:52:24.472Z,25.80
2019-01-19T13:54:57.872Z,27.57
2019-01-19T13:57:37.382Z,26.90
2019-01-19T14:00:19.301Z,25.37
2019-01-19T14:03:14.031Z,27.43
2019-01-19T14:06:02.675Z,31.00
2019-01-19T14:08:49.250Z,31.40
2019-01-19T14:11:19.910Z,29.77
2019-01-19T14:14:11.457Z,28.73
2019-01-19T14:16:47.805Z,30.67
2019-01-19T14:19:27.089Z,28.80
2019-01-19T14:22:19.961Z,29.43
2019-01-19T14:24:59.079Z,30.13
2019-01-19T14:27:38.416Z,30.70
2019-01-19T14:30:37.661Z,28.73
2019-01-19T14:33:19.407Z,29.87
2019-01-19T14:36:01.036Z,30.27
2019-01-19T14:38:43.486Z,29.20
2019-01-19T14:41:51.356Z,31.60
2019-01-19T14:44:53.288Z,31.20
2019-01-19T14:47:32.195Z,30.63
2019-01-19T14:50:21.685Z,33.20
2019-01-19T14:53:28.517Z,31.20
2019-01-19T14:56:23.268Z,28.97
2019-01-19T14:59:08.360Z,31.73
2019-01-19T15:01:44.537Z,30.70
2019-01-19T15:04:39.348Z,31.77
2019-01-19T15:07:45.999Z,30.90
2019-01-19T15:10:25.474Z,28.23
2019-01-19T15:13:01.918Z,31.53
2019-01-19T15:15:41.095Z,28.73
2019-01-19T15:18:29.594Z,32.07
2019-01-19T15:21:11.563Z,32.97
2019-01-19T15:23:54.028Z,29.83
2019-01-19T15:26:42.635Z,30.47
2019-01-19T15:29:31.245Z,32.17
2019-01-19T15:32:28.357Z,28.00
2019-01-19T15:35:04.609Z,28.97
2019-01-19T15:37:50.230Z,31.17
2019-01-19T15:40:40.462Z,32.53
2019-01-19T15:43:30.532Z,33.03
2019-01-19T15:46:20.396Z,32.80
2019-01-19T15:49:11.945Z,30.20
2019-01-19T15:52:03.499Z,31.67
2019-01-19T15:55:01.236Z,33.30
2019-01-19T15:57:52.345Z,35.30
2019-01-19T16:00:28.194Z,32.30
2019-01-19T16:03:05.733Z,31.73
2019-01-19T16:05:44.905Z,32.47
2019-01-19T16:08:23.962Z,31.30
2019-01-19T16:11:03.176Z,32.90
2019-01-19T16:13:39.532Z,30.27
2019-01-19T16:16:30.012Z,29.80
2019-01-19T16:19:24.433Z,31.20
2019-01-19T16:22:12.770Z,30.63
2019-01-19T16:24:46.011Z,35.10
2019-01-19T16:27:24.996Z,31.63
2019-01-19T16:30:16.250Z,30.07
2019-01-19T16:33:12.044Z,34.30
2019-01-19T16:35:51.992Z,30.90
2019-01-19T16:38:37.404Z,33.00
2019-01-19T16:41:38.309Z,32.97
2019-01-19T16:44:20.646Z,31.63
2019-01-19T16:47:14.989Z,31.43
2019-01-19T16:50:21.885Z,30.77
2019-01-19T16:52:57.985Z,33.63
2019-01-19T16:55:34.042Z,34.23
2019-01-19T16:58:10.971Z,32.00
2019-01-19T17:00:59.163Z,36.13
2019-01-19T17:03:41.801Z,32.90
2019-01-19T17:06:30.757Z,31.63
2019-01-19T17:09:33.059Z,32.93
2019-01-19T17:12:15.785Z,32.07
2019-01-19T17:15:16.189Z,32.47
2019-01-19T17:18:05.805Z,32.83
2019-01-19T17:20:56.153Z,33.70
2019-01-19T17:23:41.667Z,32.80
2019-01-19T17:26:23.037Z,32.87
2019-01-19T17:29:18.759Z,31.90
2019-01-19T17:32:15.096Z,31.90
2019-01-19T17:34:56.134Z,31.37
2019-01-19T17:37:35.419Z,33.27
2019-01-19T17:40:31.782Z,33.83
2019-01-19T17:43:26.433Z,33.33
2019-01-19T17:46:12.276Z,36.20
2019-01-19T17:48:48.337Z,31.27
2019-01-19T17:51:33.926Z,36.83
2019-01-19T17:54:28.527Z,32.93
2019-01-19T17:57:10.880Z,31.90
2019-01-19T18:00:12.002Z,33.73
2019-01-19T18:03:07.177Z,33.03
2019-01-19T18:05:55.542Z,33.13
2019-01-19T18:08:59.280Z,33.67
2019-01-19T18:11:38.399Z,32.83
2019-01-19T18:14:18.108Z,33.60
2019-01-19T18:17:23.157Z,31.77
2019-01-19T18:20:01.764Z,31.30
2019-01-19T18:22:35.187Z,32.33
2019-01-19T18:25:30.023Z,31.73
2019-01-19T18:28:03.385Z,30.53
2019-01-19T18:30:40.093Z,33.30
2019-01-19T18:33:22.350Z,30.77
2019-01-19T18:36:01.748Z,34.70
2019-01-19T18:39:08.792Z,33.30
2019-01-19T18:41:51.767Z,32.17
2019-01-19T18:44:40.772Z,30.00
2019-01-19T18:47:14.005Z,30.50
2019-01-19T18:49:56.312Z,27.67
2019-01-19T18:52:48.903Z,32.30
2019-01-19T18:55:25.082Z,31.50
2019-01-19T18:57:58.700Z,30.83
2019-01-19T19:00:44.216Z,33.20
2019-01-19T19:03:29.642Z,32.33
2019-01-19T19:06:09.239Z,33.40
2019-01-19T19:08:51.467Z,33.27
2019-01-19T19:11:34.159Z,31.93
2019-01-19T19:14:11.006Z,35.13
2019-01-19T19:16:52.844Z,31.97
2019-01-19T19:19:41.272Z,30.20
2019-01-19T19:22:20.608Z,30.73
2019-01-19T19:25:10.636Z,31.97
2019-01-19T19:27:49.602Z,30.53
2019-01-19T19:30:25.575Z,30.47
2019-01-19T19:33:20.005Z,32.23
2019-01-19T19:36:08.304Z,31.10
2019-01-19T19:38:47.754Z,32.40
2019-01-19T19:41:42.854Z,28.70
2019-01-19T19:44:31.364Z,28.90
2019-01-19T19:47:16.598Z,30.13
2019-01-19T19:49:56.347Z,30.00
2019-01-19T19:52:27.960Z,28.00
2019-01-19T19:54:57.352Z,29.97
2019-01-19T19:57:28.188Z,31.13
2019-01-19T19:59:58.640Z,28.57
2019-01-19T20:02:30.023Z,28.53
2019-01-19T20:05:00.533Z,30.47
2019-01-19T20:07:31.518Z,29.53
2019-01-19T20:10:02.304Z,31.33
2019-01-19T20:12:38.873Z,31.40
2019-01-19T20:15:10.820Z,28.50
2019-01-19T20:17:41.518Z,30.40
2019-01-19T20:20:12.706Z,29.60
2019-01-19T20:22:43.292Z,30.40
2019-01-19T20:25:13.798Z,29.60
2019-01-19T20:27:44.567Z,27.80
2019-01-19T20:30:17.491Z,28.30
2019-01-19T20:32:47.961Z,30.13
2019-01-19T20:35:21.042Z,26.83
2019-01-19T20:37:51.761Z,28.37
2019-01-19T20:40:24.444Z,26.83
2019-01-19T20:42:54.676Z,28.67
2019-01-19T20:45:26.667Z,27.90
2019-01-19T20:47:57.445Z,25.20
2019-01-19T20:50:28.147Z,27.67
2019-01-19T20:52:58.679Z,27.53
2019-01-19T20:55:29.068Z,27.20
2019-01-19T20:57:59.864Z,25.10
2019-01-19T21:00:30.686Z,29.30
2019-01-19T21:03:01.141Z,26.10
2019-01-19T21:05:31.765Z,26.93
2019-01-19T21:08:02.658Z,27.57
2019-01-19T21:10:33.208Z,26.70
2019-01-19T21:13:03.930Z,26.07
2019-01-19T21:15:36.226Z,25.77
2019-01-19T21:18:06.889Z,25.50
2019-01-19T21:20:37.928Z,27.80
2019-01-19T21:23:10.359Z,26.20
2019-01-19T21:25:41.434Z,25.77
2019-01-19T21:28:12.380Z,25.87
2019-01-19T21:30:44.367Z,28.87
2019-01-19T21:33:14.919Z,26.40
2019-01-19T21:35:45.405Z,26.73
2019-01-19T21:38:16.098Z,29.40
2019-01-19T21:40:46.593Z,26.70
2019-01-19T21:43:17.097Z,26.87
2019-01-19T21:45:47.986Z,27.50
2019-01-19T21:48:18.723Z,26.07
2019-01-19T21:50:49.429Z,28.93
2019-01-19T21:53:20.039Z,27.80
2019-01-19T21:55:53.090Z,26.50
2019-01-19T21:58:23.905Z,27.40
2019-01-19T22:00:54.669Z,26.40
2019-01-19T22:03:25.718Z,26.63
2019-01-19T22:05:56.422Z,26.50
2019-01-19T22:08:27.161Z,26.80
2019-01-19T22:10:57.793Z,23.10
2019-01-19T22:13:28.619Z,24.90
2019-01-19T22:15:59.390Z,26.70
2019-01-19T22:18:32.024Z,24.50
2019-01-19T22:21:02.779Z,24.73
2019-01-19T22:23:33.981Z,27.70
2019-01-19T22:26:04.860Z,23.90
2019-01-19T22:28:37.017Z,25.07
2019-01-19T22:31:07.890Z,25.10
2019-01-19T22:33:38.914Z,24.30
2019-01-19T22:36:09.546Z,25.83
2019-01-19T22:38:40.350Z,22.77
2019-01-19T22:41:12.694Z,24.60
2019-01-19T22:43:43.948Z,25.00
2019-01-19T22:46:14.662Z,24.73
2019-01-19T22:48:45.471Z,24.83
2019-01-19T22:51:16.245Z,23.80
2019-01-19T22:53:46.902Z,24.90
2019-01-19T22:56:17.758Z,22.50
2019-01-19T22:58:48.630Z,24.00
2019-01-19T23:01:28.496Z,24.37
2019-01-19T23:03:59.648Z,24.40
2019-01-19T23:06:30.276Z,22.30
2019-01-19T23:09:01.178Z,22.00
2019-01-19T23:11:33.944Z,24.73
2019-01-19T23:14:05.839Z,21.80
2019-01-19T23:16:36.645Z,24.80
2019-01-19T23:19:07.631Z,23.50
2019-01-19T23:21:38.506Z,22.37
2019-01-19T23:24:09.519Z,22.67
2019-01-19T23:26:40.482Z,23.17
2019-01-19T23:29:11.249Z,23.13
2019-01-19T23:31:42.045Z,23.00
2019-01-19T23:34:12.905Z,22.83
2019-01-19T23:36:44.570Z,22.20
2019-01-19T23:39:16.407Z,22.23
2019-01-19T23:41:47.614Z,23.00
2019-01-19T23:44:18.757Z,23.87
2019-01-19T23:46:49.515Z,22.13
2019-01-19T23:49:20.703Z,23.50
2019-01-19T23:51:51.182Z,20.70
2019-01-19T23:54:22.156Z,19.63
2019-01-19T23:56:53.931Z,22.90
2019-01-19T23:59:24.952Z,23.50
